Time;durP1;ratioP1;P1;durP2;ratioP2;P2;SDS_P1;SDS_P2;PMS_P1;PMS_P2;Temp;Humidity;BMP_temperature;BMP_pressure;BME280_temperature;BME280_humidity;BME280_pressure;Samples;Min_cycle;Max_cycle;Signal;HPM_P1;HPM_P2
2022/06/26 00:00:05;;;;;;;5.00;3.53;;;;;;;18.60;100.00;99490.50;5007626;28;20045;-54
2022/06/26 00:03:03;;;;;;;4.57;3.85;;;;;;;18.44;100.00;99493.25;5008943;28;20054;-54
2022/06/26 00:05:48;;;;;;;4.68;4.05;;;;;;;18.46;100.00;99488.72;5015265;28;20045;-54
2022/06/26 00:08:32;;;;;;;5.70;4.00;;;;;;;18.34;100.00;99492.97;5008337;28;20046;-53
2022/06/26 00:11:17;;;;;;;6.13;3.83;;;;;;;18.37;100.00;99498.06;5011136;28;20058;-54
2022/06/26 00:14:01;;;;;;;6.90;4.07;;;;;;;18.29;100.00;99499.50;5013281;28;20053;-54
2022/06/26 00:16:46;;;;;;;4.20;3.80;;;;;;;18.20;100.00;99496.47;5010680;28;20041;-53
2022/06/26 00:19:31;;;;;;;3.95;3.53;;;;;;;18.06;100.00;99496.44;5006657;28;20460;-54
2022/06/26 00:22:17;;;;;;;4.25;3.78;;;;;;;18.01;100.00;99492.41;5010520;28;20062;-53
2022/06/26 00:25:02;;;;;;;4.55;3.70;;;;;;;18.02;100.00;99494.94;5009977;28;20029;-51
2022/06/26 00:27:46;;;;;;;4.82;4.00;;;;;;;17.98;100.00;99491.63;5012158;28;20045;-54
2022/06/26 00:30:31;;;;;;;5.13;3.92;;;;;;;18.01;100.00;99501.19;5010363;28;20046;-52
2022/06/26 00:33:16;;;;;;;7.70;3.97;;;;;;;17.89;100.00;99500.13;5012928;28;20072;-52
2022/06/26 00:36:00;;;;;;;6.10;5.07;;;;;;;17.78;100.00;99483.16;5011537;28;20042;-53
2022/06/26 00:38:45;;;;;;;9.93;5.30;;;;;;;17.80;100.00;99499.81;5014924;28;20050;-54
2022/06/26 00:41:30;;;;;;;9.63;4.70;;;;;;;17.80;100.00;99497.16;5010801;28;20144;-53
2022/06/26 00:44:23;;;;;;;5.00;3.72;;;;;;;17.74;100.00;99498.34;5024625;28;20037;-54
2022/06/26 00:47:08;;;;;;;4.72;4.15;;;;;;;17.89;100.00;99493.97;5012024;28;20045;-53
2022/06/26 00:49:52;;;;;;;6.68;4.15;;;;;;;17.84;100.00;99496.91;5011461;28;20049;-54
2022/06/26 00:52:39;;;;;;;8.30;4.18;;;;;;;17.79;100.00;99498.13;5018229;28;20381;-54
2022/06/26 00:55:23;;;;;;;5.15;4.45;;;;;;;17.78;100.00;99499.94;5013531;28;20557;-52
2022/06/26 00:58:08;;;;;;;5.95;4.72;;;;;;;17.84;100.00;99496.91;5007684;28;20046;-54
2022/06/26 01:00:52;;;;;;;5.75;4.32;;;;;;;17.77;100.00;99500.00;5014112;28;20042;-53
2022/06/26 01:03:36;;;;;;;5.10;4.60;;;;;;;17.75;100.00;99506.22;5009575;28;20054;-54
2022/06/26 01:06:21;;;;;;;7.13;4.15;;;;;;;17.68;100.00;99506.69;5012627;28;20038;-53
2022/06/26 01:09:06;;;;;;;9.15;3.88;;;;;;;17.59;100.00;99509.88;5014468;28;20046;-53
2022/06/26 01:11:50;;;;;;;25.90;7.03;;;;;;;17.65;100.00;99506.88;5014046;28;20053;-54
2022/06/26 01:14:35;;;;;;;13.70;5.72;;;;;;;17.57;100.00;99515.22;5013745;28;20054;-53
2022/06/26 01:17:20;;;;;;;7.38;5.10;;;;;;;17.66;100.00;99508.56;5011046;28;20045;-52
2022/06/26 01:20:05;;;;;;;11.40;4.82;;;;;;;17.57;100.00;99509.09;5011824;28;20041;-53
2022/06/26 01:23:04;;;;;;;13.52;5.05;;;;;;;17.50;100.00;99516.53;5011913;28;20780;-54
2022/06/26 01:25:49;;;;;;;7.22;4.38;;;;;;;17.41;100.00;99511.78;5011870;28;20062;-52
2022/06/26 01:28:34;;;;;;;6.82;4.10;;;;;;;17.32;100.00;99510.50;5009003;28;20050;-52
2022/06/26 01:31:19;;;;;;;16.63;6.30;;;;;;;17.33;100.00;99511.38;5023449;28;20033;-53
2022/06/26 01:34:06;;;;;;;13.68;5.25;;;;;;;17.20;100.00;99520.00;5011102;28;20053;-53
2022/06/26 01:36:50;;;;;;;33.35;7.22;;;;;;;17.24;100.00;99520.69;5012937;28;20042;-52
2022/06/26 01:39:35;;;;;;;52.65;14.35;;;;;;;17.15;100.00;99510.63;5014289;28;20042;-51
2022/06/26 01:42:20;;;;;;;326.63;86.25;;;;;;;17.04;100.00;99513.88;5016460;28;20037;-54
2022/06/26 01:45:04;;;;;;;30.42;10.07;;;;;;;17.10;100.00;99523.28;5016302;28;20408;-53
2022/06/26 01:47:49;;;;;;;253.65;93.40;;;;;;;17.10;100.00;99516.19;5000299;28;20692;-53
2022/06/26 01:50:33;;;;;;;228.73;71.53;;;;;;;16.99;100.00;99506.19;5020395;28;20046;-53
2022/06/26 01:53:19;;;;;;;541.45;81.18;;;;;;;16.86;100.00;99501.69;5014348;28;20046;-53
2022/06/26 01:56:06;;;;;;;658.05;142.80;;;;;;;16.92;100.00;99520.69;5018085;28;20484;-53
2022/06/26 01:58:56;;;;;;;12.30;5.15;;;;;;;16.83;100.00;99521.19;5012872;28;20042;-53
2022/06/26 02:01:50;;;;;;;708.97;212.30;;;;;;;16.82;100.00;99524.78;5013779;28;20057;-53
2022/06/26 02:04:35;;;;;;;220.57;38.65;;;;;;;16.79;100.00;99527.59;5024489;28;20120;-53
2022/06/26 02:07:20;;;;;;;14.93;13.48;;;;;;;16.74;100.00;99529.63;5010207;28;20045;-52
2022/06/26 02:16:22;;;;;;;126.93;23.10;;;;;;;16.57;100.00;99533.16;5013285;28;20053;-54
2022/06/26 02:19:07;;;;;;;1763.13;999.90;;;;;;;16.49;100.00;99554.75;5022225;28;20411;-54
2022/06/26 02:21:52;;;;;;;1999.90;999.90;;;;;;;16.41;100.00;99553.44;5018353;28;20559;-53
2022/06/26 02:24:36;;;;;;;292.52;270.30;;;;;;;16.49;100.00;99551.25;5020349;28;20057;-53
2022/06/26 02:27:21;;;;;;;1999.90;999.90;;;;;;;16.42;100.00;99553.38;5012941;28;20108;-52
2022/06/26 02:30:06;;;;;;;1521.40;754.35;;;;;;;16.43;100.00;99557.72;5019600;28;20054;-52
2022/06/26 02:32:52;;;;;;;1768.63;710.78;;;;;;;16.23;100.00;99558.75;5015195;28;20838;-54
2022/06/26 02:35:37;;;;;;;288.15;257.35;;;;;;;16.42;100.00;99557.81;5014922;28;20042;-52
2022/06/26 02:38:23;;;;;;;1094.22;524.25;;;;;;;16.30;100.00;99560.16;5015674;28;20080;-53
2022/06/26 02:41:09;;;;;;;527.25;480.75;;;;;;;16.30;100.00;99567.22;5012462;28;20108;-53
2022/06/26 02:43:54;;;;;;;1999.90;999.90;;;;;;;16.29;100.00;99568.16;5014767;28;20705;-52
2022/06/26 02:46:38;;;;;;;368.65;206.85;;;;;;;16.22;100.00;99570.28;5016465;28;20057;-52
2022/06/26 02:49:23;;;;;;;118.10;107.72;;;;;;;16.25;100.00;99570.13;5013937;28;20077;-52
2022/06/26 02:52:07;;;;;;;162.27;146.82;;;;;;;16.21;100.00;99562.41;5015886;28;20049;-51
2022/06/26 02:54:53;;;;;;;1999.90;999.90;;;;;;;16.14;100.00;99567.16;5015526;28;20045;-54
2022/06/26 02:57:38;;;;;;;1999.90;999.90;;;;;;;16.15;100.00;99571.50;5014505;28;20049;-52
2022/06/26 03:00:23;;;;;;;1999.90;999.90;;;;;;;16.09;100.00;99556.84;5014456;28;20136;-52
2022/06/26 03:03:08;;;;;;;1999.90;999.90;;;;;;;16.17;100.00;99566.16;5026378;28;20055;-52
2022/06/26 03:05:52;;;;;;;1092.63;562.72;;;;;;;16.11;100.00;99575.25;5019401;28;20042;-51
2022/06/26 03:08:41;;;;;;;1532.30;777.08;;;;;;;16.18;100.00;99578.41;5025392;28;20045;-52
2022/06/26 03:11:26;;;;;;;1523.40;765.22;;;;;;;16.13;100.00;99573.38;5010607;28;20485;-53
2022/06/26 03:14:11;;;;;;;1033.05;530.95;;;;;;;16.09;100.00;99575.34;5015621;28;20053;-53
2022/06/26 03:16:55;;;;;;;1999.90;999.90;;;;;;;16.16;100.00;99577.66;5014335;28;20045;-52
2022/06/26 03:19:39;;;;;;;609.88;348.98;;;;;;;16.17;100.00;99582.84;5011845;28;20045;-54
2022/06/26 03:22:24;;;;;;;1999.90;999.90;;;;;;;16.20;100.00;99585.34;5012848;28;20058;-52
2022/06/26 03:25:10;;;;;;;1999.90;999.90;;;;;;;16.09;100.00;99583.25;5014147;28;20057;-53
2022/06/26 03:27:56;;;;;;;1999.90;999.90;;;;;;;16.30;100.00;99585.72;5011583;28;20050;-51
2022/06/26 03:30:43;;;;;;;1999.90;999.90;;;;;;;16.22;100.00;99594.06;5017877;28;20385;-52
2022/06/26 03:33:27;;;;;;;1999.90;999.90;;;;;;;16.20;100.00;99587.97;5025787;28;20045;-53
2022/06/26 03:36:11;;;;;;;1999.90;999.90;;;;;;;16.23;100.00;99587.81;5011698;28;20382;-52
2022/06/26 03:38:56;;;;;;;1999.90;999.90;;;;;;;16.33;100.00;99593.50;5025075;28;20077;-50
2022/06/26 03:41:57;;;;;;;1999.90;999.90;;;;;;;16.39;100.00;99590.53;5012186;28;20041;-52
2022/06/26 03:44:45;;;;;;;1999.90;999.90;;;;;;;16.37;100.00;99587.09;5015534;28;20037;-53
2022/06/26 03:47:30;;;;;;;1028.07;513.05;;;;;;;16.52;100.00;99590.75;5012426;28;20397;-53
2022/06/26 03:50:14;;;;;;;1999.90;999.90;;;;;;;16.63;100.00;99585.72;5011240;28;20038;-54
2022/06/26 03:52:58;;;;;;;1999.90;999.90;;;;;;;16.70;100.00;99592.38;5010300;28;20046;-53
2022/06/26 03:55:43;;;;;;;701.42;389.17;;;;;;;16.81;100.00;99587.41;5008279;28;20469;-54
2022/06/26 03:58:29;;;;;;;1999.90;999.90;;;;;;;16.82;100.00;99577.69;5008727;28;20072;-54
2022/06/26 04:01:14;;;;;;;1503.85;753.60;;;;;;;16.98;100.00;99585.66;5016649;28;20061;-54
2022/06/26 04:04:04;;;;;;;1999.90;999.90;;;;;;;17.20;100.00;99587.97;5012309;28;20045;-58
2022/06/26 04:06:49;;;;;;;1999.90;999.90;;;;;;;17.31;100.00;99590.00;5011601;28;20404;-56
2022/06/26 04:09:43;;;;;;;1999.90;999.90;;;;;;;17.59;100.00;99591.94;5009583;28;20050;-53
2022/06/26 04:12:28;;;;;;;1999.90;999.90;;;;;;;17.76;100.00;99594.47;5025074;28;20041;-54
2022/06/26 04:15:13;;;;;;;1999.90;999.90;;;;;;;18.18;100.00;99590.28;5013534;28;20923;-53
2022/06/26 04:17:59;;;;;;;1999.90;999.90;;;;;;;18.42;100.00;99601.19;5010965;28;20042;-54
2022/06/26 04:20:43;;;;;;;1999.90;999.90;;;;;;;18.77;100.00;99600.88;5014275;28;20046;-54
2022/06/26 04:23:29;;;;;;;1999.90;999.90;;;;;;;19.06;100.00;99597.22;5010057;28;20887;-56
2022/06/26 04:26:21;;;;;;;1999.90;999.90;;;;;;;19.35;100.00;99603.34;5011804;28;20057;-53
2022/06/26 04:29:05;;;;;;;1999.90;999.90;;;;;;;19.35;100.00;99599.84;5010384;28;20779;-55
2022/06/26 04:31:55;;;;;;;1999.90;999.90;;;;;;;19.72;100.00;99616.88;5011168;28;20064;-54
2022/06/26 04:34:41;;;;;;;1999.90;999.90;;;;;;;19.94;100.00;99613.66;5012541;28;20437;-57
2022/06/26 04:37:26;;;;;;;1999.90;999.90;;;;;;;20.13;100.00;99610.63;5011783;28;20045;-58
2022/06/26 04:40:11;;;;;;;1999.90;999.90;;;;;;;20.31;100.00;99611.19;5011261;28;20160;-55
2022/06/26 04:42:58;;;;;;;1999.90;999.90;;;;;;;20.40;100.00;99609.69;5009009;28;20046;-56
2022/06/26 04:45:43;;;;;;;1999.90;999.90;;;;;;;20.40;100.00;99612.34;5014222;28;20041;-55
2022/06/26 04:48:27;;;;;;;1999.90;999.90;;;;;;;20.75;100.00;99610.78;5009342;28;20053;-54
2022/06/26 04:51:13;;;;;;;1999.90;999.90;;;;;;;20.95;100.00;99616.53;5012231;28;20062;-57
2022/06/26 04:53:58;;;;;;;1999.90;999.90;;;;;;;21.02;100.00;99617.78;5009198;28;20672;-52
2022/06/26 04:56:50;;;;;;;1999.90;999.90;;;;;;;21.40;100.00;99616.88;5010025;28;20054;-58
2022/06/26 04:59:35;;;;;;;1999.90;999.90;;;;;;;21.47;98.60;99621.63;5014032;28;20046;-59
2022/06/26 05:02:21;;;;;;;1999.90;999.90;;;;;;;21.70;97.54;99619.94;5010603;28;20045;-57
2022/06/26 05:05:32;;;;;;;1999.90;999.90;;;;;;;21.88;92.73;99625.72;5010844;28;20042;-57
2022/06/26 05:08:23;;;;;;;1999.90;999.90;;;;;;;21.89;90.99;99623.91;5007398;28;20050;-57
2022/06/26 05:11:08;;;;;;;1999.90;999.90;;;;;;;21.91;91.37;99624.66;5013503;28;20054;-55
2022/06/26 05:13:55;;;;;;;1999.90;999.90;;;;;;;22.30;88.18;99630.63;5018109;28;20622;-56
2022/06/26 05:16:53;;;;;;;1999.90;999.90;;;;;;;22.52;89.93;99635.16;5013388;28;20053;-57
2022/06/26 05:19:44;;;;;;;1999.90;999.90;;;;;;;22.85;85.25;99629.03;5016096;28;20046;-54
2022/06/26 05:22:29;;;;;;;1999.90;999.90;;;;;;;22.80;86.52;99637.38;5016426;28;20049;-57
2022/06/26 05:25:14;;;;;;;1999.90;999.90;;;;;;;22.78;82.71;99646.47;5012503;28;20647;-59
2022/06/26 05:27:59;;;;;;;1999.90;999.90;;;;;;;23.47;84.84;99643.69;5011808;28;20049;-60
2022/06/26 05:30:43;;;;;;;1999.90;999.90;;;;;;;23.42;83.18;99644.06;5017518;28;20477;-57
2022/06/26 05:33:29;;;;;;;1999.90;999.90;;;;;;;23.40;81.69;99647.81;5013783;28;20049;-56
2022/06/26 05:36:14;;;;;;;1999.90;999.90;;;;;;;23.63;78.33;99649.50;5015989;28;20041;-57
2022/06/26 05:38:59;;;;;;;1999.90;999.90;;;;;;;23.81;77.34;99647.13;5013843;28;20388;-57
2022/06/26 05:41:47;;;;;;;1999.90;999.90;;;;;;;24.22;75.64;99653.56;5010695;28;20672;-57
2022/06/26 05:44:32;;;;;;;1999.90;999.90;;;;;;;24.18;73.35;99654.75;5015279;28;20053;-59
2022/06/26 05:47:19;;;;;;;1999.90;999.90;;;;;;;24.38;77.12;99653.94;5012697;28;20488;-60
2022/06/26 05:50:24;;;;;;;1999.90;999.90;;;;;;;24.24;75.44;99656.94;5005092;28;20595;-59
2022/06/26 05:53:23;;;;;;;1999.90;999.90;;;;;;;24.58;77.08;99660.31;5014116;28;20045;-59
2022/06/26 05:56:43;;;;;;;1999.90;999.90;;;;;;;24.78;74.26;99660.44;5010136;28;20053;-59
2022/06/26 05:59:32;;;;;;;1999.90;999.90;;;;;;;24.75;72.88;99672.25;5016778;28;20038;-58
2022/06/26 06:02:30;;;;;;;1999.90;999.90;;;;;;;25.10;69.71;99665.66;5013213;28;20050;-56
2022/06/26 06:05:15;;;;;;;1999.90;999.90;;;;;;;25.57;71.13;99665.97;5016014;28;20611;-60
2022/06/26 06:08:02;;;;;;;1999.90;999.90;;;;;;;25.68;69.04;99668.53;5027029;28;20042;-58
2022/06/26 06:10:46;;;;;;;1999.90;999.90;;;;;;;25.58;70.12;99671.22;5011478;28;20041;-59
2022/06/26 06:13:32;;;;;;;1999.90;999.90;;;;;;;26.03;69.83;99664.50;5017758;28;20510;-59
2022/06/26 06:16:16;;;;;;;1999.90;999.90;;;;;;;26.21;67.54;99667.34;5014933;28;20053;-60
2022/06/26 06:19:01;;;;;;;1999.90;999.90;;;;;;;26.36;67.56;99668.59;5017682;28;20060;-60
2022/06/26 06:21:48;;;;;;;1999.90;999.90;;;;;;;26.49;66.75;99662.97;5016778;28;20045;-56
2022/06/26 06:24:33;;;;;;;1999.90;999.90;;;;;;;26.80;66.53;99674.34;5014926;28;20104;-58
2022/06/26 06:27:18;;;;;;;1999.90;999.90;;;;;;;26.93;65.56;99668.66;5011969;28;20524;-57
2022/06/26 06:30:05;;;;;;;1999.90;999.90;;;;;;;26.97;64.30;99675.41;5018403;28;20535;-57
2022/06/26 06:32:50;;;;;;;1999.90;999.90;;;;;;;26.63;66.17;99677.78;5015926;28;20141;-62
2022/06/26 06:35:48;;;;;;;1999.90;999.90;;;;;;;27.10;65.30;99681.31;5012627;28;20045;-58
2022/06/26 06:38:34;;;;;;;1999.90;999.90;;;;;;;27.42;62.55;99685.44;5018289;28;20137;-59
2022/06/26 06:41:24;;;;;;;1999.90;999.90;;;;;;;26.92;60.26;99683.09;5024984;28;20041;-59
2022/06/26 06:44:21;;;;;;;1999.90;999.90;;;;;;;26.95;62.70;99694.38;5024490;28;20100;-57
2022/06/26 06:47:24;;;;;;;1999.90;999.90;;;;;;;27.64;59.33;99694.97;5010204;28;20056;-59
2022/06/26 06:50:28;;;;;;;1999.90;999.90;;;;;;;27.51;63.05;99689.94;5013268;28;20042;-60
2022/06/26 06:53:14;;;;;;;1999.90;999.90;;;;;;;27.68;59.25;99683.72;5009750;28;20526;-59
2022/06/26 06:55:59;;;;;;;1999.90;999.90;;;;;;;27.41;58.24;99686.44;5017129;28;20045;-59
2022/06/26 06:58:44;;;;;;;1999.90;999.90;;;;;;;28.46;55.09;99680.50;5012256;28;20052;-61
2022/06/26 07:01:29;;;;;;;1999.90;999.90;;;;;;;28.70;55.93;99679.84;5013187;28;20048;-59
2022/06/26 07:04:13;;;;;;;1999.90;999.90;;;;;;;28.92;53.23;99683.84;5012433;28;20062;-60
2022/06/26 07:06:59;;;;;;;1999.90;999.90;;;;;;;29.26;56.79;99680.34;5013475;28;20108;-58
2022/06/26 07:09:43;;;;;;;1999.90;999.90;;;;;;;29.18;55.56;99688.38;5011684;28;20045;-57
2022/06/26 07:12:28;;;;;;;1999.90;999.90;;;;;;;29.14;54.04;99687.88;5019883;28;20046;-62
2022/06/26 07:15:13;;;;;;;1999.90;999.90;;;;;;;29.12;54.98;99687.22;5012398;28;20064;-59
2022/06/26 07:17:59;;;;;;;1999.90;999.90;;;;;;;29.65;52.88;99686.09;5012483;28;20583;-62
2022/06/26 07:20:46;;;;;;;1999.90;999.90;;;;;;;28.93;51.00;99682.00;5007823;28;20045;-59
2022/06/26 07:23:31;;;;;;;1999.90;999.90;;;;;;;29.68;51.46;99679.53;5008741;28;20357;-60
2022/06/26 07:26:24;;;;;;;1999.90;999.90;;;;;;;29.94;50.43;99682.13;5014086;28;20049;-60
2022/06/26 07:29:09;;;;;;;1999.90;999.90;;;;;;;29.37;52.07;99688.16;5016859;28;20081;-61
2022/06/26 07:31:59;;;;;;;1999.90;999.90;;;;;;;30.01;48.72;99680.44;5014871;28;20057;-62
2022/06/26 07:34:44;;;;;;;1999.90;999.90;;;;;;;29.98;49.39;99680.78;5010839;28;20054;-61
2022/06/26 07:37:29;;;;;;;1999.90;999.90;;;;;;;30.32;51.63;99687.91;5011194;28;20473;-57
2022/06/26 07:40:13;;;;;;;1999.90;999.90;;;;;;;29.79;47.25;99684.59;5008125;28;20520;-57
2022/06/26 07:42:59;;;;;;;1999.90;999.90;;;;;;;29.74;48.27;99685.13;5024627;28;20057;-60
2022/06/26 07:45:48;;;;;;;1999.90;999.90;;;;;;;30.44;48.10;99684.69;5023637;28;20045;-62
2022/06/26 07:48:35;;;;;;;1999.90;999.90;;;;;;;30.76;45.53;99684.84;5010759;28;20053;-58
2022/06/26 07:51:21;;;;;;;1999.90;999.90;;;;;;;30.63;46.16;99667.31;5018619;28;20045;-59
2022/06/26 07:54:06;;;;;;;1999.90;999.90;;;;;;;30.76;45.66;99677.59;5008963;28;20388;-58
2022/06/26 07:56:50;;;;;;;1999.90;999.90;;;;;;;30.71;43.75;99679.94;5008692;28;20046;-64
2022/06/26 07:59:35;;;;;;;1999.90;999.90;;;;;;;31.47;43.76;99680.47;5010114;28;20484;-61
2022/06/26 08:02:19;;;;;;;1999.90;999.90;;;;;;;30.96;43.63;99684.31;5012271;28;20148;-62
2022/06/26 08:05:05;;;;;;;1999.90;999.90;;;;;;;31.28;42.30;99681.69;5010246;28;20041;-58
2022/06/26 08:07:50;;;;;;;1999.90;999.90;;;;;;;31.38;43.80;99676.94;5013482;28;20045;-64
2022/06/26 08:10:36;;;;;;;1999.90;999.90;;;;;;;31.84;41.43;99679.75;5009355;28;20049;-64
2022/06/26 08:13:20;;;;;;;1999.90;999.90;;;;;;;31.54;40.83;99679.56;5006333;28;20053;-63
2022/06/26 08:16:05;;;;;;;1999.90;999.90;;;;;;;31.35;39.79;99685.41;5013338;28;20038;-60
2022/06/26 08:18:50;;;;;;;1999.90;999.90;;;;;;;31.98;39.57;99687.16;5012178;28;20057;-60
2022/06/26 08:24:39;;;;;;;1999.90;999.90;;;;;;;31.89;38.86;99694.47;5012775;28;20499;-64
2022/06/26 08:27:24;;;;;;;1999.90;999.90;;;;;;;32.17;41.33;99685.81;5012233;28;20050;-59
2022/06/26 08:30:12;;;;;;;1999.90;999.90;;;;;;;32.29;37.65;99681.66;5010339;28;20045;-63
2022/06/26 08:32:58;;;;;;;1999.90;999.90;;;;;;;32.16;38.88;99686.00;5012393;28;20049;-58
2022/06/26 08:35:43;;;;;;;1999.90;999.90;;;;;;;32.81;39.00;99680.88;5016397;28;20479;-59
2022/06/26 08:38:29;;;;;;;1999.90;999.90;;;;;;;32.68;38.33;99682.53;5017416;28;20042;-59
2022/06/26 08:41:15;;;;;;;1999.90;999.90;;;;;;;33.08;39.55;99691.28;5009532;28;20057;-63
2022/06/26 08:44:00;;;;;;;1999.90;999.90;;;;;;;33.12;38.07;99685.31;5008741;28;20070;-60
2022/06/26 08:46:46;;;;;;;1999.90;999.90;;;;;;;32.56;35.61;99683.00;5011256;28;20056;-61
2022/06/26 08:49:31;;;;;;;1999.90;999.90;;;;;;;32.29;36.86;99688.94;5007249;28;20045;-59
2022/06/26 08:52:20;;;;;;;1999.90;999.90;;;;;;;33.18;37.03;99690.00;5011300;28;20107;-58
2022/06/26 08:55:05;;;;;;;1999.90;999.90;;;;;;;32.84;37.16;99678.81;5011924;28;20415;-58
2022/06/26 08:57:50;;;;;;;1999.90;999.90;;;;;;;32.34;37.99;99684.66;5012629;28;20057;-63
2022/06/26 09:00:35;;;;;;;1999.90;999.90;;;;;;;32.41;37.38;99686.66;5016560;28;20042;-60
2022/06/26 09:03:19;;;;;;;1999.90;999.90;;;;;;;32.73;36.22;99682.84;5009266;28;20058;-57
2022/06/26 09:06:04;;;;;;;1999.90;999.90;;;;;;;32.56;35.83;99685.72;5009675;28;20034;-59
2022/06/26 09:08:49;;;;;;;1999.90;999.90;;;;;;;32.04;37.75;99691.81;5012510;28;20439;-57
2022/06/26 09:11:38;;;;;;;1999.90;999.90;;;;;;;32.47;35.70;99681.38;5011932;28;20528;-57
2022/06/26 09:14:24;;;;;;;1999.90;999.90;;;;;;;32.50;35.41;99682.84;5011673;28;20050;-57
2022/06/26 09:17:09;;;;;;;1999.90;999.90;;;;;;;32.69;36.31;99682.34;5010279;28;20049;-61
2022/06/26 09:19:55;;;;;;;1999.90;999.90;;;;;;;32.19;33.95;99686.47;5012071;28;20049;-57
2022/06/26 09:22:52;;;;;;;1999.90;999.90;;;;;;;32.99;37.32;99685.13;5016173;28;20046;-59
2022/06/26 09:25:43;;;;;;;1999.90;999.90;;;;;;;32.87;35.36;99679.28;5009545;28;20057;-58
2022/06/26 09:28:28;;;;;;;;;;;;;;;33.49;35.18;99684.38;5012569;28;20041;-59
2022/06/26 09:31:22;;;;;;;1999.90;999.90;;;;;;;33.59;34.43;99678.66;5011054;28;19922;-57
2022/06/26 09:34:18;;;;;;;1999.90;999.90;;;;;;;33.62;33.48;99674.72;5011399;28;20045;-60
2022/06/26 09:37:05;;;;;;;1999.90;999.90;;;;;;;33.06;33.35;99680.66;5011596;28;20635;-62
2022/06/26 09:40:00;;;;;;;1999.90;999.90;;;;;;;33.21;34.95;99692.31;5018117;28;20068;-63
2022/06/26 09:42:45;;;;;;;1999.90;999.90;;;;;;;33.82;32.27;99677.66;5018500;28;20061;-59
2022/06/26 09:45:42;;;;;;;1999.90;999.90;;;;;;;33.60;33.94;99674.06;5011214;28;20050;-60
2022/06/26 09:48:27;;;;;;;1999.90;999.90;;;;;;;33.11;32.86;99674.66;5010636;28;20034;-59
2022/06/26 09:51:13;;;;;;;1999.90;999.90;;;;;;;33.30;33.23;99673.25;5009351;28;20045;-56
2022/06/26 09:53:58;;;;;;;1999.90;999.90;;;;;;;33.45;32.13;99674.91;5010152;28;20770;-60
2022/06/26 09:56:43;;;;;;;1999.90;999.90;;;;;;;33.50;34.38;99682.50;5009546;28;20773;-63
2022/06/26 09:59:28;;;;;;;1999.90;999.90;;;;;;;33.39;32.08;99674.81;5014135;28;20042;-61
2022/06/26 10:08:49;;;;;;;1999.90;999.90;;;;;;;34.09;33.78;99665.22;4945977;28;20047;-56
2022/06/26 10:11:38;;;;;;;1999.90;999.90;;;;;;;32.76;33.04;99663.47;4961238;28;20050;-57
2022/06/26 10:14:36;;;;;;;1999.90;999.90;;;;;;;32.96;34.09;99677.34;5006388;28;20064;-58
2022/06/26 10:17:52;;;;;;;1999.90;999.90;;;;;;;33.85;34.48;99674.56;5020140;28;20038;-59
2022/06/26 10:20:41;;;;;;;1999.90;999.90;;;;;;;34.03;33.12;99671.41;5013962;28;20096;-59
2022/06/26 10:23:35;;;;;;;1999.90;999.90;;;;;;;34.55;32.30;99664.84;5014890;28;20089;-55
2022/06/26 10:26:21;;;;;;;1999.90;999.90;;;;;;;33.73;32.15;99674.22;5013644;28;20053;-57
2022/06/26 10:29:08;;;;;;;1999.90;999.90;;;;;;;33.80;33.69;99668.84;5023301;28;20128;-61
2022/06/26 10:31:53;;;;;;;1999.90;999.90;;;;;;;33.94;33.39;99673.41;5013738;28;20046;-61
2022/06/26 10:34:37;;;;;;;1999.90;999.90;;;;;;;33.74;31.24;99678.63;5013858;28;20065;-61
2022/06/26 10:37:22;;;;;;;1999.90;999.90;;;;;;;34.19;32.26;99661.16;5010032;28;20034;-61
2022/06/26 10:43:43;;;;;;;1999.90;999.90;;;;;;;34.08;33.58;99674.41;5013546;28;20053;-60
2022/06/26 10:46:46;;;;;;;1999.90;999.90;;;;;;;33.91;32.04;99665.63;5005032;28;20492;-59
2022/06/26 10:49:31;;;;;;;1999.90;999.90;;;;;;;33.17;32.82;99676.63;5015464;28;20052;-58
2022/06/26 10:52:26;;;;;;;1999.90;999.90;;;;;;;33.54;32.58;99677.53;5004036;28;20053;-59
2022/06/26 10:55:11;;;;;;;1999.90;999.90;;;;;;;33.73;31.88;99677.78;5014057;28;20564;-62
2022/06/26 10:57:56;;;;;;;1999.90;999.90;;;;;;;34.50;30.21;99678.13;5011308;28;20051;-61
2022/06/26 11:00:40;;;;;;;1999.90;999.90;;;;;;;34.61;31.14;99675.75;5013689;28;20049;-61
2022/06/26 11:03:27;;;;;;;1999.90;999.90;;;;;;;34.66;31.29;99669.72;5011701;28;20049;-59
2022/06/26 11:06:17;;;;;;;1999.90;999.90;;;;;;;34.66;31.10;99669.72;5012172;28;20053;-62
2022/06/26 11:09:01;;;;;;;1999.90;999.90;;;;;;;33.91;31.57;99681.94;5012668;28;20492;-61
2022/06/26 11:11:52;;;;;;;1999.90;999.90;;;;;;;33.82;32.41;99674.94;5011531;28;20049;-60
2022/06/26 11:14:36;;;;;;;1999.90;999.90;;;;;;;33.59;32.83;99673.22;5012527;28;20120;-61
2022/06/26 11:17:24;;;;;;;1999.90;999.90;;;;;;;33.58;32.30;99671.53;5010612;28;20053;-60
2022/06/26 11:23:18;;;;;;;1999.90;999.90;;;;;;;34.49;30.99;99660.97;5012903;28;20046;-60
2022/06/26 11:26:06;;;;;;;1999.90;999.90;;;;;;;34.05;30.56;99663.94;5012212;28;20046;-58
2022/06/26 11:29:02;;;;;;;1999.90;999.90;;;;;;;33.84;31.37;99653.88;5011141;28;20053;-59
2022/06/26 11:31:50;;;;;;;1999.90;999.90;;;;;;;33.44;31.31;99665.09;5010555;28;20068;-58
2022/06/26 11:34:35;;;;;;;1999.90;999.90;;;;;;;34.12;30.60;99657.50;5012598;28;20064;-59
2022/06/26 11:37:37;;;;;;;1999.90;999.90;;;;;;;34.43;32.61;99659.06;5011708;28;20050;-58
2022/06/26 11:40:23;;;;;;;1999.90;999.90;;;;;;;34.50;30.97;99665.38;5006085;28;20049;-59
2022/06/26 11:43:08;;;;;;;1999.90;999.90;;;;;;;33.42;32.55;99655.44;5008397;28;20033;-59
2022/06/26 11:45:53;;;;;;;1999.90;999.90;;;;;;;34.21;33.04;99658.22;5011102;28;20057;-58
2022/06/26 11:48:37;;;;;;;1999.90;999.90;;;;;;;34.34;31.59;99644.75;5011542;28;20141;-57
2022/06/26 11:51:22;;;;;;;1999.90;999.90;;;;;;;34.34;31.82;99652.06;5013307;28;20089;-57
2022/06/26 11:54:07;;;;;;;1999.90;999.90;;;;;;;33.85;30.29;99658.25;5011593;28;20054;-58
2022/06/26 11:56:51;;;;;;;1999.90;999.90;;;;;;;33.76;32.53;99660.25;5009403;28;20049;-59
2022/06/26 11:59:45;;;;;;;1999.90;999.90;;;;;;;34.17;31.63;99660.50;5010099;28;20068;-58
2022/06/26 12:02:31;;;;;;;1999.90;999.90;;;;;;;34.37;32.49;99649.78;5013094;28;20045;-56
2022/06/26 12:05:23;;;;;;;1999.90;999.90;;;;;;;33.56;30.00;99653.75;5011844;28;20441;-57
2022/06/26 12:08:18;;;;;;;1999.90;999.90;;;;;;;34.61;31.17;99654.00;5010774;28;20554;-58
2022/06/26 12:11:02;;;;;;;1999.90;999.90;;;;;;;34.24;32.45;99659.72;5010915;28;20047;-56
2022/06/26 12:13:47;;;;;;;1999.90;999.90;;;;;;;34.46;33.26;99652.38;5009585;28;20383;-56
2022/06/26 12:16:32;;;;;;;1999.90;999.90;;;;;;;34.03;30.74;99658.69;5010413;28;20053;-56
2022/06/26 12:19:17;;;;;;;1999.90;999.90;;;;;;;34.41;31.16;99656.50;5010181;28;20049;-57
2022/06/26 12:22:02;;;;;;;1999.90;999.90;;;;;;;33.81;35.32;99668.66;5009934;28;20054;-57
2022/06/26 12:24:51;;;;;;;1999.90;999.90;;;;;;;33.99;33.26;99660.06;5012527;28;20859;-57
2022/06/26 12:27:37;;;;;;;1999.90;999.90;;;;;;;34.46;30.47;99657.81;5008984;28;20046;-59
2022/06/26 12:30:26;;;;;;;1999.90;999.90;;;;;;;33.97;31.74;99654.84;5010128;28;20046;-58
2022/06/26 12:33:11;;;;;;;1999.90;999.90;;;;;;;34.41;31.96;99659.22;5012556;28;20436;-58
2022/06/26 12:35:55;;;;;;;1999.90;999.90;;;;;;;34.12;31.27;99659.38;5003141;28;20092;-56
2022/06/26 12:38:41;;;;;;;1999.90;999.90;;;;;;;33.94;34.58;99663.38;5009270;28;20148;-59
2022/06/26 12:41:25;;;;;;;1999.90;999.90;;;;;;;34.09;31.60;99651.63;5008423;28;20049;-58
2022/06/26 12:44:09;;;;;;;1999.90;999.90;;;;;;;33.40;32.57;99652.91;5009267;28;20061;-57
2022/06/26 12:46:55;;;;;;;1999.90;999.90;;;;;;;33.90;33.60;99655.81;5009953;28;20054;-59